createdAt,value
2022-11-23T00:01:24.252Z,53.58
2022-11-23T00:03:52.590Z,52.50
2022-11-23T00:06:21.112Z,52.53
2022-11-23T00:08:48.539Z,52.35
2022-11-23T00:11:19.035Z,48.78
2022-11-23T00:13:46.107Z,48.13
2022-11-23T00:16:15.763Z,46.20
2022-11-23T00:18:42.603Z,44.50
2022-11-23T00:21:12.126Z,44.00
2022-11-23T00:23:38.915Z,46.85
2022-11-23T00:26:06.028Z,51.30
2022-11-23T00:28:32.912Z,46.38
2022-11-23T00:31:02.791Z,46.47
2022-11-23T00:33:29.472Z,49.25
2022-11-23T00:36:04.708Z,47.38
2022-11-23T00:38:31.561Z,47.88
2022-11-23T00:41:03.293Z,46.65
2022-11-23T00:43:30.326Z,48.25
2022-11-23T00:46:17.743Z,47.53
2022-11-23T00:48:45.771Z,44.60
2022-11-23T00:51:15.564Z,46.33
2022-11-23T00:53:43.727Z,49.40
2022-11-23T00:56:11.942Z,46.00
2022-11-23T00:58:39.068Z,45.75
2022-11-23T01:01:06.019Z,44.10
2022-11-23T01:03:35.126Z,46.08
2022-11-23T01:06:06.585Z,45.97
2022-11-23T01:08:33.733Z,47.47
2022-11-23T01:11:02.770Z,48.83
2022-11-23T01:13:29.572Z,43.33
2022-11-23T01:15:56.517Z,50.95
2022-11-23T01:18:23.631Z,49.78
2022-11-23T01:20:50.320Z,54.20
2022-11-23T01:23:16.988Z,49.20
2022-11-23T01:25:43.678Z,43.50
2022-11-23T01:28:10.511Z,48.80
2022-11-23T01:30:37.202Z,49.13
2022-11-23T01:33:04.695Z,49.03
2022-11-23T01:35:31.492Z,46.90
2022-11-23T01:37:58.211Z,51.20
2022-11-23T01:40:25.064Z,44.38
2022-11-23T01:43:00.796Z,43.70
2022-11-23T01:45:33.470Z,41.70
2022-11-23T01:48:00.619Z,45.63
2022-11-23T01:50:27.394Z,44.15
2022-11-23T01:52:54.059Z,48.28
2022-11-23T01:55:21.018Z,45.38
2022-11-23T01:57:48.079Z,45.92
2022-11-23T02:00:15.720Z,45.45
2022-11-23T02:02:51.588Z,44.85
2022-11-23T02:05:20.804Z,45.60
2022-11-23T02:07:48.428Z,47.38
2022-11-23T02:10:15.963Z,44.22
2022-11-23T02:12:42.701Z,45.85
2022-11-23T02:15:12.287Z,42.00
2022-11-23T02:17:40.620Z,42.95
2022-11-23T02:20:15.766Z,49.10
2022-11-23T02:23:12.771Z,46.72
2022-11-23T02:25:44.527Z,41.83
2022-11-23T02:28:22.131Z,44.88
2022-11-23T02:30:50.724Z,44.97
2022-11-23T02:33:17.560Z,43.70
2022-11-23T02:35:52.863Z,40.42
2022-11-23T02:38:20.013Z,41.63
2022-11-23T02:40:46.873Z,42.40
2022-11-23T02:43:14.049Z,42.50
2022-11-23T02:45:59.948Z,45.28
2022-11-23T02:48:26.584Z,40.55
2022-11-23T02:50:53.242Z,40.13
2022-11-23T02:53:20.384Z,41.53
2022-11-23T02:55:47.335Z,43.00
2022-11-23T02:58:14.049Z,44.17
2022-11-23T03:00:41.890Z,39.47
2022-11-23T03:03:08.638Z,43.78
2022-11-23T03:05:35.401Z,42.03
2022-11-23T03:08:05.487Z,45.05
2022-11-23T03:10:32.517Z,40.20
2022-11-23T03:12:59.337Z,52.55
2022-11-23T03:15:28.799Z,40.80
2022-11-23T03:17:59.262Z,40.40
2022-11-23T03:20:26.462Z,43.75
2022-11-23T03:22:55.749Z,40.13
2022-11-23T03:25:23.875Z,42.42
2022-11-23T03:27:53.712Z,39.47
2022-11-23T03:30:21.221Z,41.00
2022-11-23T03:32:48.891Z,38.92
2022-11-23T03:35:16.484Z,37.92
2022-11-23T03:38:01.652Z,42.75
2022-11-23T03:40:28.340Z,39.13
2022-11-23T03:43:10.844Z,35.97
2022-11-23T03:45:37.658Z,42.00
2022-11-23T03:48:05.138Z,41.65
2022-11-23T03:50:31.996Z,39.95
2022-11-23T03:52:59.891Z,43.53
2022-11-23T03:55:27.062Z,39.80
2022-11-23T03:57:59.851Z,41.85
2022-11-23T04:00:30.975Z,38.72
2022-11-23T04:02:58.658Z,41.05
2022-11-23T04:05:43.778Z,38.10
2022-11-23T04:08:29.065Z,40.25
2022-11-23T04:10:58.092Z,39.35
2022-11-23T04:13:35.195Z,37.53
2022-11-23T04:16:02.308Z,37.78
2022-11-23T04:18:29.046Z,39.45
2022-11-23T04:20:55.955Z,41.10
2022-11-23T04:23:22.738Z,42.95
2022-11-23T04:25:50.231Z,41.28
2022-11-23T04:28:17.752Z,40.25
2022-11-23T04:30:46.761Z,42.28
2022-11-23T04:33:13.743Z,42.50
2022-11-23T04:35:40.632Z,40.40
2022-11-23T04:38:10.662Z,44.25
2022-11-23T04:40:37.729Z,41.17
2022-11-23T04:43:06.732Z,37.72
2022-11-23T04:45:38.774Z,40.47
2022-11-23T04:48:08.767Z,36.33
2022-11-23T04:50:40.358Z,41.03
2022-11-23T04:53:08.752Z,39.00
2022-11-23T04:55:44.155Z,37.45
2022-11-23T04:58:11.297Z,42.83
2022-11-23T05:00:39.241Z,38.70
2022-11-23T05:03:06.258Z,39.55
2022-11-23T05:05:38.112Z,40.28
2022-11-23T05:08:05.240Z,48.65
2022-11-23T05:10:44.737Z,49.80
2022-11-23T05:13:11.539Z,39.85
2022-11-23T05:15:38.254Z,44.03
2022-11-23T05:18:07.048Z,36.15
2022-11-23T05:20:35.395Z,38.53
2022-11-23T05:23:02.510Z,36.55
2022-11-23T05:25:33.774Z,36.40
2022-11-23T05:28:23.315Z,38.97
2022-11-23T05:30:55.017Z,35.85
2022-11-23T05:33:21.815Z,35.83
2022-11-23T05:35:48.513Z,37.67
2022-11-23T05:38:16.175Z,37.60
2022-11-23T05:40:45.251Z,37.95
2022-11-23T05:43:13.361Z,36.03
2022-11-23T05:45:43.715Z,38.47
2022-11-23T05:48:10.788Z,37.13
2022-11-23T05:50:50.340Z,36.60
2022-11-23T05:53:32.103Z,39.70
2022-11-23T05:56:08.672Z,39.97
2022-11-23T05:58:44.654Z,34.47
2022-11-23T06:01:12.007Z,35.40
2022-11-23T06:03:39.503Z,35.95
2022-11-23T06:06:06.773Z,46.63
2022-11-23T06:08:39.376Z,56.67
2022-11-23T06:11:06.520Z,56.15
2022-11-23T06:13:33.725Z,48.67
2022-11-23T06:16:00.555Z,47.75
2022-11-23T06:18:34.592Z,43.65
2022-11-23T06:21:01.514Z,37.15
2022-11-23T06:23:28.478Z,36.55
2022-11-23T06:26:01.242Z,34.55
2022-11-23T06:28:30.402Z,34.53
2022-11-23T06:31:02.457Z,36.97
2022-11-23T06:33:29.205Z,33.45
2022-11-23T06:35:57.280Z,33.67
2022-11-23T06:38:27.403Z,35.40
2022-11-23T06:41:31.036Z,35.65
2022-11-23T06:43:59.585Z,32.03
2022-11-23T06:46:41.133Z,37.67
2022-11-23T06:49:07.976Z,34.80
2022-11-23T06:51:35.183Z,37.25
2022-11-23T06:54:01.979Z,34.65
2022-11-23T06:56:29.325Z,37.10
2022-11-23T06:58:56.044Z,35.30
2022-11-23T07:01:26.691Z,34.25
2022-11-23T07:04:06.784Z,32.88
2022-11-23T07:06:42.128Z,33.88
2022-11-23T07:09:17.478Z,34.97
2022-11-23T07:11:52.448Z,34.85
2022-11-23T07:14:19.088Z,34.05
2022-11-23T07:16:47.903Z,36.13
2022-11-23T07:19:16.135Z,36.53
2022-11-23T07:21:45.468Z,37.33
2022-11-23T07:24:13.485Z,33.95
2022-11-23T07:26:42.002Z,37.88
2022-11-23T07:29:10.142Z,34.55
2022-11-23T07:31:37.161Z,34.35
2022-11-23T07:34:05.091Z,35.28
2022-11-23T07:36:32.951Z,36.47
2022-11-23T07:39:02.902Z,39.25
2022-11-23T07:41:29.584Z,34.55
2022-11-23T07:44:06.504Z,32.55
2022-11-23T07:46:33.224Z,35.30
2022-11-23T07:49:02.349Z,35.08
2022-11-23T07:51:29.644Z,37.15
2022-11-23T07:53:56.471Z,37.95
2022-11-23T07:56:23.591Z,36.33
2022-11-23T07:58:50.693Z,34.55
2022-11-23T08:01:18.989Z,36.30
2022-11-23T08:03:46.791Z,36.75
2022-11-23T08:06:14.249Z,36.47
2022-11-23T08:08:42.615Z,38.63
2022-11-23T08:11:10.725Z,37.63
2022-11-23T08:13:37.506Z,34.80
2022-11-23T08:16:04.784Z,40.63
2022-11-23T08:18:31.552Z,34.92
2022-11-23T08:21:01.339Z,35.47
2022-11-23T08:23:28.328Z,39.92
2022-11-23T08:25:58.273Z,39.45
2022-11-23T08:28:24.951Z,33.83
2022-11-23T08:30:51.740Z,34.58
2022-11-23T08:33:18.425Z,32.30
2022-11-23T08:35:45.131Z,36.20
2022-11-23T08:38:12.273Z,31.92
2022-11-23T08:40:39.289Z,37.10
2022-11-23T08:43:06.233Z,38.55
2022-11-23T08:45:33.097Z,30.35
2022-11-23T08:48:03.768Z,33.50
2022-11-23T08:50:31.224Z,32.15
2022-11-23T08:52:59.094Z,31.52
2022-11-23T08:55:27.514Z,33.47
2022-11-23T08:58:00.654Z,33.03
2022-11-23T09:00:27.948Z,30.40
2022-11-23T09:02:54.927Z,29.90
2022-11-23T09:05:21.918Z,28.52
2022-11-23T09:07:48.857Z,28.50
2022-11-23T09:10:18.675Z,29.20
2022-11-23T09:12:46.975Z,25.58
2022-11-23T09:15:14.375Z,29.15
2022-11-23T09:17:41.032Z,28.40
2022-11-23T09:20:08.627Z,29.73
2022-11-23T09:22:35.332Z,27.52
2022-11-23T09:25:02.890Z,29.40
2022-11-23T09:27:29.880Z,26.45
2022-11-23T09:29:56.686Z,23.23
2022-11-23T09:32:23.508Z,28.05
2022-11-23T09:34:50.508Z,27.75
2022-11-23T09:37:17.210Z,27.30
2022-11-23T09:39:44.006Z,24.52
2022-11-23T09:42:39.159Z,23.98
2022-11-23T09:45:20.019Z,25.20
2022-11-23T09:48:09.331Z,26.40
2022-11-23T09:50:57.033Z,27.35
2022-11-23T09:53:33.153Z,24.23
2022-11-23T09:56:00.097Z,28.13
2022-11-23T09:58:31.396Z,30.50
2022-11-23T10:01:04.269Z,26.00
2022-11-23T10:03:41.539Z,25.85
2022-11-23T10:06:22.747Z,25.50
2022-11-23T10:09:14.945Z,23.23
2022-11-23T10:12:05.424Z,24.92
2022-11-23T10:14:50.408Z,25.80
2022-11-23T10:17:54.193Z,25.00
2022-11-23T10:20:29.890Z,21.63
2022-11-23T10:22:59.446Z,27.73
2022-11-23T10:25:29.926Z,24.95
2022-11-23T10:28:02.835Z,26.17
2022-11-23T10:30:29.596Z,25.42
2022-11-23T10:33:15.518Z,24.98
2022-11-23T10:35:42.173Z,25.00
2022-11-23T10:38:19.912Z,24.73
2022-11-23T10:41:00.156Z,23.40
2022-11-23T10:43:32.017Z,23.85
2022-11-23T10:46:27.019Z,22.58
2022-11-23T10:48:54.260Z,24.02
2022-11-23T10:51:31.156Z,22.90
2022-11-23T10:54:05.196Z,22.08
2022-11-23T10:56:35.309Z,20.67
2022-11-23T10:59:02.019Z,22.63
2022-11-23T11:01:31.834Z,24.77
2022-11-23T11:04:04.555Z,19.38
2022-11-23T11:06:34.264Z,23.60
2022-11-23T11:09:04.571Z,24.30
2022-11-23T11:11:39.205Z,25.45
2022-11-23T11:14:14.954Z,24.45
2022-11-23T11:16:55.607Z,21.52
2022-11-23T11:19:35.861Z,21.95
2022-11-23T11:22:26.974Z,20.25
2022-11-23T11:24:54.247Z,19.65
2022-11-23T11:27:22.784Z,19.10
2022-11-23T11:29:51.583Z,23.90
2022-11-23T11:32:26.287Z,18.35
2022-11-23T11:35:20.595Z,20.50
2022-11-23T11:37:50.072Z,19.52
2022-11-23T11:40:18.090Z,20.55
2022-11-23T11:42:55.386Z,19.52
2022-11-23T11:45:31.870Z,17.55
2022-11-23T11:48:07.278Z,21.23
2022-11-23T11:50:40.810Z,21.42
2022-11-23T11:53:11.913Z,18.40
2022-11-23T11:55:50.904Z,17.30
2022-11-23T11:58:18.154Z,19.77
2022-11-23T12:00:47.064Z,22.10
2022-11-23T12:03:34.918Z,17.30
2022-11-23T12:06:10.980Z,18.48
2022-11-23T12:08:52.514Z,18.08
2022-11-23T12:11:19.739Z,27.25
2022-11-23T12:13:47.100Z,17.35
2022-11-23T12:16:34.498Z,20.40
2022-11-23T12:19:22.055Z,16.02
2022-11-23T12:21:58.558Z,17.52
2022-11-23T12:24:25.381Z,20.33
2022-11-23T12:27:14.093Z,17.50
2022-11-23T12:29:54.733Z,18.65
2022-11-23T12:32:46.250Z,18.52
2022-11-23T12:35:31.633Z,21.33
2022-11-23T12:38:08.133Z,21.13
2022-11-23T12:40:40.838Z,22.50
2022-11-23T12:43:22.885Z,21.90
2022-11-23T12:46:03.210Z,20.95
2022-11-23T12:48:48.449Z,23.98
2022-11-23T12:51:40.657Z,20.83
2022-11-23T12:54:14.052Z,22.17
2022-11-23T12:57:18.841Z,19.88
2022-11-23T12:59:53.532Z,19.40
2022-11-23T13:02:36.968Z,21.05
2022-11-23T13:05:22.612Z,21.77
2022-11-23T13:08:04.503Z,21.90
2022-11-23T13:10:48.350Z,23.35
2022-11-23T13:13:40.585Z,22.98
2022-11-23T13:16:10.331Z,20.35
2022-11-23T13:19:04.209Z,20.33
2022-11-23T13:21:36.810Z,19.67
2022-11-23T13:24:04.026Z,19.98
2022-11-23T13:26:32.176Z,19.67
2022-11-23T13:29:00.474Z,21.27
2022-11-23T13:31:36.040Z,21.15
2022-11-23T13:34:07.503Z,21.77
2022-11-23T13:37:10.520Z,17.60
2022-11-23T13:39:45.844Z,18.20
2022-11-23T13:42:15.858Z,18.75
2022-11-23T13:44:42.793Z,17.63
2022-11-23T13:47:12.341Z,24.20
2022-11-23T13:49:43.600Z,18.45
2022-11-23T13:52:22.567Z,21.02
2022-11-23T13:55:10.061Z,20.52
2022-11-23T13:57:42.423Z,16.58
2022-11-23T14:00:47.254Z,17.95
2022-11-23T14:03:49.290Z,19.15
2022-11-23T14:06:43.508Z,16.85
2022-11-23T14:09:19.173Z,15.98
2022-11-23T14:11:56.989Z,14.95
2022-11-23T14:14:29.634Z,18.05
2022-11-23T14:17:27.442Z,20.40
2022-11-23T14:19:59.729Z,18.13
2022-11-23T14:22:34.611Z,16.98
2022-11-23T14:25:13.539Z,15.27
2022-11-23T14:28:15.109Z,21.33
2022-11-23T14:31:04.924Z,17.55
2022-11-23T14:33:55.989Z,17.73
2022-11-23T14:37:04.161Z,16.95
2022-11-23T14:39:48.942Z,15.27
2022-11-23T14:42:19.310Z,19.17
2022-11-23T14:44:46.453Z,16.83
2022-11-23T14:47:13.548Z,18.52
2022-11-23T14:49:51.184Z,17.70
2022-11-23T14:52:33.765Z,17.42
2022-11-23T14:55:03.181Z,20.15
2022-11-23T14:57:37.830Z,18.08
2022-11-23T15:00:10.207Z,18.23
2022-11-23T15:02:40.928Z,17.42
2022-11-23T15:05:15.162Z,17.95
2022-11-23T15:08:02.902Z,16.65
2022-11-23T15:10:51.699Z,17.38
2022-11-23T15:13:21.044Z,18.17
2022-11-23T15:15:52.289Z,19.52
2022-11-23T15:18:29.672Z,22.00
2022-11-23T15:20:59.795Z,18.88
2022-11-23T15:23:33.309Z,22.58
2022-11-23T15:26:04.146Z,24.77
2022-11-23T15:28:33.231Z,17.70
2022-11-23T15:31:01.902Z,22.77
2022-11-23T15:33:28.811Z,21.15
2022-11-23T15:35:55.834Z,24.50
2022-11-23T15:38:24.155Z,19.85
2022-11-23T15:40:51.559Z,20.33
2022-11-23T15:43:19.662Z,20.77
2022-11-23T15:45:46.556Z,19.00
2022-11-23T15:48:16.493Z,20.38
2022-11-23T15:50:53.795Z,21.67
2022-11-23T15:53:38.220Z,20.40
2022-11-23T15:56:06.448Z,21.23
2022-11-23T15:58:35.277Z,21.85
2022-11-23T16:01:13.343Z,21.00
2022-11-23T16:03:52.649Z,21.35
2022-11-23T16:06:23.222Z,20.95
2022-11-23T16:08:49.924Z,20.88
2022-11-23T16:11:35.455Z,22.92
2022-11-23T16:14:18.557Z,21.17
2022-11-23T16:16:47.735Z,20.88
2022-11-23T16:19:31.159Z,18.70
2022-11-23T16:22:02.953Z,21.33
2022-11-23T16:24:35.263Z,21.25
2022-11-23T16:27:12.077Z,21.15
2022-11-23T16:29:42.004Z,24.75
2022-11-23T16:32:29.346Z,22.90
2022-11-23T16:34:58.669Z,24.27
2022-11-23T16:37:26.599Z,25.58
2022-11-23T16:39:53.399Z,18.40
2022-11-23T16:42:20.288Z,19.77
2022-11-23T16:44:47.202Z,25.10
2022-11-23T16:47:25.237Z,20.70
2022-11-23T16:49:55.295Z,20.80
2022-11-23T16:52:23.074Z,21.10
2022-11-23T16:54:50.733Z,22.27
2022-11-23T16:57:27.479Z,21.25
2022-11-23T16:59:54.309Z,22.33
2022-11-23T17:02:21.690Z,21.83
2022-11-23T17:04:48.678Z,21.13
2022-11-23T17:07:16.951Z,20.48
2022-11-23T17:09:44.744Z,19.60
2022-11-23T17:12:17.183Z,20.42
2022-11-23T17:14:47.187Z,19.80
2022-11-23T17:17:23.029Z,19.83
2022-11-23T17:19:50.282Z,20.27
2022-11-23T17:22:18.020Z,22.58
2022-11-23T17:24:44.951Z,20.00
2022-11-23T17:27:16.899Z,23.00
2022-11-23T17:29:44.851Z,22.10
2022-11-23T17:32:13.155Z,23.20
2022-11-23T17:34:41.645Z,20.45
2022-11-23T17:37:18.162Z,20.27
2022-11-23T17:39:45.173Z,24.23
2022-11-23T17:42:12.534Z,19.70
2022-11-23T17:44:39.542Z,23.50
2022-11-23T17:47:07.670Z,22.15
2022-11-23T17:49:35.758Z,21.80
2022-11-23T17:52:02.665Z,22.60
2022-11-23T17:54:29.559Z,24.63
2022-11-23T17:56:57.963Z,22.17
2022-11-23T17:59:24.852Z,20.08
2022-11-23T18:01:51.695Z,23.40
2022-11-23T18:04:18.490Z,19.05
2022-11-23T18:06:49.656Z,24.92
2022-11-23T18:09:17.366Z,22.30
2022-11-23T18:11:44.181Z,19.85
2022-11-23T18:14:10.877Z,23.52
2022-11-23T18:16:37.890Z,22.80
2022-11-23T18:19:04.821Z,23.33
2022-11-23T18:21:31.984Z,22.73
2022-11-23T18:24:04.120Z,22.55
2022-11-23T18:26:31.949Z,24.13
2022-11-23T18:28:59.046Z,21.92
2022-11-23T18:31:26.279Z,20.50
2022-11-23T18:33:53.365Z,21.00
2022-11-23T18:36:20.947Z,21.20
2022-11-23T18:38:48.319Z,22.88
2022-11-23T18:41:16.967Z,24.10
2022-11-23T18:43:44.532Z,22.65
2022-11-23T18:46:12.665Z,25.15
2022-11-23T18:48:39.611Z,22.83
2022-11-23T18:51:11.875Z,22.95
2022-11-23T18:53:39.513Z,23.80
2022-11-23T18:56:07.690Z,26.45
2022-11-23T18:58:42.471Z,24.48
2022-11-23T19:01:21.011Z,25.80
2022-11-23T19:03:50.207Z,25.27
2022-11-23T19:06:18.322Z,27.27
2022-11-23T19:08:50.920Z,25.60
2022-11-23T19:11:23.511Z,27.40
2022-11-23T19:13:52.383Z,25.63
2022-11-23T19:16:21.597Z,23.88
2022-11-23T19:18:53.717Z,27.13
2022-11-23T19:21:21.715Z,26.45
2022-11-23T19:23:50.209Z,28.23
2022-11-23T19:26:18.263Z,30.27
2022-11-23T19:28:46.159Z,24.75
2022-11-23T19:31:24.404Z,26.88
2022-11-23T19:33:52.725Z,28.42
2022-11-23T19:36:21.709Z,26.30
2022-11-23T19:38:49.386Z,26.35
2022-11-23T19:41:16.778Z,28.08
2022-11-23T19:43:43.555Z,26.40
2022-11-23T19:46:14.978Z,26.85
2022-11-23T19:48:42.281Z,29.00
2022-11-23T19:51:13.625Z,25.17
2022-11-23T19:53:41.562Z,28.65
2022-11-23T19:56:14.291Z,26.73
2022-11-23T19:58:48.413Z,30.25
2022-11-23T20:01:19.867Z,30.90
2022-11-23T20:03:48.870Z,29.90
2022-11-23T20:06:17.962Z,30.65
2022-11-23T20:08:45.481Z,31.77
2022-11-23T20:11:15.094Z,28.48
2022-11-23T20:13:42.440Z,30.55
2022-11-23T20:16:12.591Z,29.65
2022-11-23T20:18:39.814Z,30.75
2022-11-23T20:21:14.294Z,29.27
2022-11-23T20:23:42.036Z,32.35
2022-11-23T20:26:11.068Z,28.83
2022-11-23T20:28:37.922Z,29.60
2022-11-23T20:31:16.944Z,31.42
2022-11-23T20:33:46.564Z,28.05
2022-11-23T20:36:29.218Z,28.45
2022-11-23T20:39:05.242Z,28.58
2022-11-23T20:41:34.520Z,29.15
2022-11-23T20:44:03.422Z,32.70
2022-11-23T20:46:54.104Z,33.70
2022-11-23T20:49:18.124Z,33.05
2022-11-23T20:51:46.006Z,32.85
2022-11-23T20:54:13.001Z,30.17
2022-11-23T20:56:39.861Z,34.03
2022-11-23T20:59:06.839Z,30.95
2022-11-23T21:01:33.647Z,32.55
2022-11-23T21:04:00.563Z,33.50
2022-11-23T21:06:27.767Z,32.10
2022-11-23T21:08:54.873Z,31.38
2022-11-23T21:11:41.264Z,35.20
2022-11-23T21:14:18.545Z,34.92
2022-11-23T21:16:46.351Z,35.55
2022-11-23T21:19:14.398Z,34.03
2022-11-23T21:21:42.536Z,34.45
2022-11-23T21:24:09.837Z,36.63
2022-11-23T21:26:36.618Z,36.70
2022-11-23T21:29:11.549Z,36.10
2022-11-23T21:31:40.138Z,38.40
2022-11-23T21:34:10.696Z,34.05
2022-11-23T21:36:39.457Z,40.28
2022-11-23T21:39:09.249Z,39.17
2022-11-23T21:41:36.888Z,36.60
2022-11-23T21:44:04.709Z,37.40
2022-11-23T21:46:31.623Z,40.72
2022-11-23T21:49:00.073Z,39.53
2022-11-23T21:51:30.132Z,38.38
2022-11-23T21:53:59.161Z,37.35
2022-11-23T21:56:26.828Z,41.90
2022-11-23T21:58:55.451Z,40.30
2022-11-23T22:01:24.585Z,40.30
2022-11-23T22:03:52.465Z,46.55
2022-11-23T22:06:20.890Z,43.10
2022-11-23T22:08:56.053Z,44.15
2022-11-23T22:11:25.359Z,41.97
2022-11-23T22:14:00.395Z,50.80
2022-11-23T22:16:31.216Z,43.80
2022-11-23T22:18:58.268Z,43.67
2022-11-23T22:21:27.011Z,42.83
2022-11-23T22:23:54.146Z,44.20
2022-11-23T22:26:21.457Z,53.92
2022-11-23T22:28:50.920Z,40.65
2022-11-23T22:31:20.086Z,40.63
2022-11-23T22:33:47.287Z,41.65
2022-11-23T22:36:16.093Z,43.85
2022-11-23T22:38:43.780Z,43.90
2022-11-23T22:41:15.824Z,45.75
2022-11-23T22:43:43.222Z,44.63
2022-11-23T22:46:15.069Z,44.75
2022-11-23T22:48:43.999Z,41.20
2022-11-23T22:51:12.576Z,51.58
2022-11-23T22:53:44.455Z,40.78
2022-11-23T22:56:14.405Z,41.42
2022-11-23T22:58:41.441Z,45.95
2022-11-23T23:01:11.625Z,42.28
2022-11-23T23:03:38.634Z,40.08
2022-11-23T23:06:05.605Z,41.30
2022-11-23T23:08:32.475Z,43.30
2022-11-23T23:11:08.627Z,45.65
2022-11-23T23:13:35.390Z,39.17
2022-11-23T23:16:03.719Z,43.95
2022-11-23T23:18:32.049Z,34.72
2022-11-23T23:21:10.690Z,38.55
2022-11-23T23:23:42.314Z,35.60
2022-11-23T23:26:09.235Z,40.20
2022-11-23T23:28:35.921Z,40.80
2022-11-23T23:31:05.309Z,37.72
2022-11-23T23:33:33.521Z,53.28
2022-11-23T23:36:08.960Z,42.83
2022-11-23T23:38:37.426Z,46.47
2022-11-23T23:41:05.316Z,43.00
2022-11-23T23:43:32.179Z,43.15
2022-11-23T23:46:03.798Z,46.80
2022-11-23T23:48:32.425Z,41.55
2022-11-23T23:50:59.764Z,40.00
2022-11-23T23:53:26.473Z,39.08
2022-11-23T23:55:57.543Z,36.92
2022-11-23T23:58:24.618Z,50.08
